sensor_id;sensor_type;location;lat;lon;timestamp;P1;durP1;ratioP1;P2;durP2;ratioP2
10977;SDS011;5542;48.272;10.794;2022-12-07T00:00:17;3.70;;;3.40;;
10977;SDS011;5542;48.272;10.794;2022-12-07T00:02:44;3.47;;;3.17;;
10977;SDS011;5542;48.272;10.794;2022-12-07T00:05:10;3.45;;;3.15;;
10977;SDS011;5542;48.272;10.794;2022-12-07T00:07:37;3.50;;;3.20;;
10977;SDS011;5542;48.272;10.794;2022-12-07T00:10:04;3.67;;;3.35;;
10977;SDS011;5542;48.272;10.794;2022-12-07T00:12:32;3.63;;;3.22;;
10977;SDS011;5542;48.272;10.794;2022-12-07T00:15:00;3.38;;;3.08;;
10977;SDS011;5542;48.272;10.794;2022-12-07T00:17:26;3.50;;;3.20;;
10977;SDS011;5542;48.272;10.794;2022-12-07T00:19:53;3.20;;;2.90;;
10977;SDS011;5542;48.272;10.794;2022-12-07T00:22:19;3.20;;;2.90;;
10977;SDS011;5542;48.272;10.794;2022-12-07T00:24:46;3.30;;;3.00;;
10977;SDS011;5542;48.272;10.794;2022-12-07T00:27:13;4.25;;;3.85;;
10977;SDS011;5542;48.272;10.794;2022-12-07T00:29:39;3.42;;;3.13;;
10977;SDS011;5542;48.272;10.794;2022-12-07T00:32:07;3.17;;;2.92;;
10977;SDS011;5542;48.272;10.794;2022-12-07T00:34:34;2.92;;;2.63;;
10977;SDS011;5542;48.272;10.794;2022-12-07T00:37:00;2.83;;;2.63;;
10977;SDS011;5542;48.272;10.794;2022-12-07T00:39:27;3.70;;;3.35;;
10977;SDS011;5542;48.272;10.794;2022-12-07T00:41:54;2.92;;;2.63;;
10977;SDS011;5542;48.272;10.794;2022-12-07T00:44:20;2.80;;;2.60;;
10977;SDS011;5542;48.272;10.794;2022-12-07T00:46:47;2.67;;;2.47;;
10977;SDS011;5542;48.272;10.794;2022-12-07T00:49:15;2.70;;;2.50;;
10977;SDS011;5542;48.272;10.794;2022-12-07T00:51:41;3.47;;;3.17;;
10977;SDS011;5542;48.272;10.794;2022-12-07T00:54:08;3.70;;;3.40;;
10977;SDS011;5542;48.272;10.794;2022-12-07T00:56:34;3.67;;;3.25;;
10977;SDS011;5542;48.272;10.794;2022-12-07T00:59:01;3.50;;;3.08;;
10977;SDS011;5542;48.272;10.794;2022-12-07T01:01:31;3.47;;;3.17;;
10977;SDS011;5542;48.272;10.794;2022-12-07T01:03:59;2.97;;;2.73;;
10977;SDS011;5542;48.272;10.794;2022-12-07T01:06:28;3.00;;;2.80;;
10977;SDS011;5542;48.272;10.794;2022-12-07T01:08:56;3.85;;;3.45;;
10977;SDS011;5542;48.272;10.794;2022-12-07T01:11:23;3.97;;;3.60;;
10977;SDS011;5542;48.272;10.794;2022-12-07T01:13:52;4.57;;;3.38;;
10977;SDS011;5542;48.272;10.794;2022-12-07T01:16:21;4.13;;;3.03;;
10977;SDS011;5542;48.272;10.794;2022-12-07T01:18:50;3.70;;;3.22;;
10977;SDS011;5542;48.272;10.794;2022-12-07T01:21:19;3.60;;;2.85;;
10977;SDS011;5542;48.272;10.794;2022-12-07T01:23:48;3.33;;;3.03;;
10977;SDS011;5542;48.272;10.794;2022-12-07T01:26:16;3.30;;;3.00;;
10977;SDS011;5542;48.272;10.794;2022-12-07T01:28:44;3.30;;;3.00;;
10977;SDS011;5542;48.272;10.794;2022-12-07T01:31:12;3.38;;;3.08;;
10977;SDS011;5542;48.272;10.794;2022-12-07T01:33:41;2.80;;;2.60;;
10977;SDS011;5542;48.272;10.794;2022-12-07T01:36:12;2.93;;;2.60;;
10977;SDS011;5542;48.272;10.794;2022-12-07T01:38:41;2.90;;;2.70;;
10977;SDS011;5542;48.272;10.794;2022-12-07T01:41:10;2.60;;;2.40;;
10977;SDS011;5542;48.272;10.794;2022-12-07T01:43:37;2.67;;;2.47;;
10977;SDS011;5542;48.272;10.794;2022-12-07T01:46:35;2.70;;;2.50;;
10977;SDS011;5542;48.272;10.794;2022-12-07T01:49:02;4.07;;;3.53;;
10977;SDS011;5542;48.272;10.794;2022-12-07T01:51:32;3.63;;;3.30;;
10977;SDS011;5542;48.272;10.794;2022-12-07T01:53:59;3.97;;;3.58;;
10977;SDS011;5542;48.272;10.794;2022-12-07T01:56:28;3.80;;;3.40;;
10977;SDS011;5542;48.272;10.794;2022-12-07T01:58:57;3.33;;;3.03;;
10977;SDS011;5542;48.272;10.794;2022-12-07T02:01:26;3.40;;;3.10;;
10977;SDS011;5542;48.272;10.794;2022-12-07T02:03:52;4.00;;;3.60;;
10977;SDS011;5542;48.272;10.794;2022-12-07T02:06:20;3.60;;;3.30;;
10977;SDS011;5542;48.272;10.794;2022-12-07T02:08:50;3.95;;;3.55;;
10977;SDS011;5542;48.272;10.794;2022-12-07T02:11:18;3.30;;;2.97;;
10977;SDS011;5542;48.272;10.794;2022-12-07T02:13:47;3.30;;;3.08;;
10977;SDS011;5542;48.272;10.794;2022-12-07T02:16:18;4.20;;;3.75;;
10977;SDS011;5542;48.272;10.794;2022-12-07T02:18:57;3.80;;;3.40;;
10977;SDS011;5542;48.272;10.794;2022-12-07T02:21:37;3.67;;;3.37;;
10977;SDS011;5542;48.272;10.794;2022-12-07T02:24:19;4.10;;;3.70;;
10977;SDS011;5542;48.272;10.794;2022-12-07T02:27:08;3.80;;;3.50;;
10977;SDS011;5542;48.272;10.794;2022-12-07T02:29:49;3.35;;;3.05;;
10977;SDS011;5542;48.272;10.794;2022-12-07T02:32:24;4.50;;;3.40;;
10977;SDS011;5542;48.272;10.794;2022-12-07T02:34:56;3.80;;;3.47;;
10977;SDS011;5542;48.272;10.794;2022-12-07T02:37:33;3.25;;;2.97;;
10977;SDS011;5542;48.272;10.794;2022-12-07T02:40:06;3.60;;;3.30;;
10977;SDS011;5542;48.272;10.794;2022-12-07T02:42:37;3.50;;;3.10;;
10977;SDS011;5542;48.272;10.794;2022-12-07T02:45:09;4.47;;;4.00;;
10977;SDS011;5542;48.272;10.794;2022-12-07T02:47:39;3.60;;;3.30;;
10977;SDS011;5542;48.272;10.794;2022-12-07T02:50:09;3.15;;;2.88;;
10977;SDS011;5542;48.272;10.794;2022-12-07T02:52:36;4.05;;;3.55;;
10977;SDS011;5542;48.272;10.794;2022-12-07T02:55:03;3.50;;;3.20;;
10977;SDS011;5542;48.272;10.794;2022-12-07T02:57:35;3.93;;;3.60;;
10977;SDS011;5542;48.272;10.794;2022-12-07T03:00:14;3.85;;;3.45;;
10977;SDS011;5542;48.272;10.794;2022-12-07T03:02:47;4.45;;;3.70;;
10977;SDS011;5542;48.272;10.794;2022-12-07T03:08:13;4.45;;;3.30;;
10977;SDS011;5542;48.272;10.794;2022-12-07T03:10:48;3.35;;;3.05;;
10977;SDS011;5542;48.272;10.794;2022-12-07T03:13:22;3.72;;;3.38;;
10977;SDS011;5542;48.272;10.794;2022-12-07T03:15:53;3.65;;;3.35;;
10977;SDS011;5542;48.272;10.794;2022-12-07T03:18:25;3.60;;;3.30;;
10977;SDS011;5542;48.272;10.794;2022-12-07T03:20:55;3.63;;;3.33;;
10977;SDS011;5542;48.272;10.794;2022-12-07T03:23:27;4.00;;;3.70;;
10977;SDS011;5542;48.272;10.794;2022-12-07T03:25:58;3.78;;;3.47;;
10977;SDS011;5542;48.272;10.794;2022-12-07T03:28:27;4.20;;;3.80;;
10977;SDS011;5542;48.272;10.794;2022-12-07T03:30:59;3.53;;;3.22;;
10977;SDS011;5542;48.272;10.794;2022-12-07T03:33:31;4.72;;;4.05;;
10977;SDS011;5542;48.272;10.794;2022-12-07T03:36:04;4.40;;;4.00;;
10977;SDS011;5542;48.272;10.794;2022-12-07T03:38:36;4.15;;;3.75;;
10977;SDS011;5542;48.272;10.794;2022-12-07T03:41:08;3.97;;;3.40;;
10977;SDS011;5542;48.272;10.794;2022-12-07T03:43:37;3.67;;;3.38;;
10977;SDS011;5542;48.272;10.794;2022-12-07T03:46:09;5.03;;;4.38;;
10977;SDS011;5542;48.272;10.794;2022-12-07T03:48:46;4.03;;;3.63;;
10977;SDS011;5542;48.272;10.794;2022-12-07T03:51:22;4.07;;;3.67;;
10977;SDS011;5542;48.272;10.794;2022-12-07T03:53:56;3.40;;;3.10;;
10977;SDS011;5542;48.272;10.794;2022-12-07T03:56:26;4.60;;;3.20;;
10977;SDS011;5542;48.272;10.794;2022-12-07T03:58:55;4.78;;;4.13;;
10977;SDS011;5542;48.272;10.794;2022-12-07T04:01:23;4.80;;;4.20;;
10977;SDS011;5542;48.272;10.794;2022-12-07T04:03:50;3.70;;;3.40;;
10977;SDS011;5542;48.272;10.794;2022-12-07T04:06:17;4.20;;;3.80;;
10977;SDS011;5542;48.272;10.794;2022-12-07T04:08:44;5.03;;;4.03;;
10977;SDS011;5542;48.272;10.794;2022-12-07T04:11:10;4.00;;;3.60;;
10977;SDS011;5542;48.272;10.794;2022-12-07T04:13:37;3.40;;;3.10;;
10977;SDS011;5542;48.272;10.794;2022-12-07T04:16:17;3.63;;;3.33;;
10977;SDS011;5542;48.272;10.794;2022-12-07T04:18:45;4.25;;;3.88;;
10977;SDS011;5542;48.272;10.794;2022-12-07T04:21:12;4.15;;;3.75;;
10977;SDS011;5542;48.272;10.794;2022-12-07T04:23:39;4.03;;;3.63;;
10977;SDS011;5542;48.272;10.794;2022-12-07T04:26:05;4.10;;;3.70;;
10977;SDS011;5542;48.272;10.794;2022-12-07T04:28:32;3.80;;;3.40;;
10977;SDS011;5542;48.272;10.794;2022-12-07T04:30:58;3.47;;;3.17;;
10977;SDS011;5542;48.272;10.794;2022-12-07T04:33:25;3.47;;;3.15;;
10977;SDS011;5542;48.272;10.794;2022-12-07T04:35:53;3.60;;;3.28;;
10977;SDS011;5542;48.272;10.794;2022-12-07T04:38:20;4.77;;;4.37;;
10977;SDS011;5542;48.272;10.794;2022-12-07T04:40:46;4.28;;;3.88;;
10977;SDS011;5542;48.272;10.794;2022-12-07T04:43:13;4.00;;;3.60;;
10977;SDS011;5542;48.272;10.794;2022-12-07T04:45:39;4.07;;;3.70;;
10977;SDS011;5542;48.272;10.794;2022-12-07T04:48:11;4.75;;;4.18;;
10977;SDS011;5542;48.272;10.794;2022-12-07T04:50:37;5.00;;;4.50;;
10977;SDS011;5542;48.272;10.794;2022-12-07T04:53:05;5.38;;;4.88;;
10977;SDS011;5542;48.272;10.794;2022-12-07T04:55:32;6.10;;;5.18;;
10977;SDS011;5542;48.272;10.794;2022-12-07T04:57:58;6.40;;;5.78;;
10977;SDS011;5542;48.272;10.794;2022-12-07T05:00:25;6.93;;;5.97;;
10977;SDS011;5542;48.272;10.794;2022-12-07T05:02:51;5.40;;;4.90;;
10977;SDS011;5542;48.272;10.794;2022-12-07T05:05:18;6.70;;;5.55;;
10977;SDS011;5542;48.272;10.794;2022-12-07T05:07:45;5.83;;;5.10;;
10977;SDS011;5542;48.272;10.794;2022-12-07T05:10:13;4.70;;;4.30;;
10977;SDS011;5542;48.272;10.794;2022-12-07T05:12:39;4.63;;;4.18;;
10977;SDS011;5542;48.272;10.794;2022-12-07T05:15:06;5.40;;;4.90;;
10977;SDS011;5542;48.272;10.794;2022-12-07T05:17:33;5.78;;;5.15;;
10977;SDS011;5542;48.272;10.794;2022-12-07T05:20:00;5.15;;;4.65;;
10977;SDS011;5542;48.272;10.794;2022-12-07T05:22:26;7.03;;;6.07;;
10977;SDS011;5542;48.272;10.794;2022-12-07T05:24:53;5.60;;;5.05;;
10977;SDS011;5542;48.272;10.794;2022-12-07T05:27:21;6.28;;;5.13;;
10977;SDS011;5542;48.272;10.794;2022-12-07T05:29:49;5.20;;;4.70;;
10977;SDS011;5542;48.272;10.794;2022-12-07T05:32:16;5.32;;;4.68;;
10977;SDS011;5542;48.272;10.794;2022-12-07T05:34:44;6.00;;;5.40;;
10977;SDS011;5542;48.272;10.794;2022-12-07T05:37:10;5.03;;;4.53;;
10977;SDS011;5542;48.272;10.794;2022-12-07T05:39:37;5.45;;;4.70;;
10977;SDS011;5542;48.272;10.794;2022-12-07T05:42:05;5.25;;;4.63;;
10977;SDS011;5542;48.272;10.794;2022-12-07T05:44:40;5.22;;;4.72;;
10977;SDS011;5542;48.272;10.794;2022-12-07T05:47:08;4.85;;;4.35;;
10977;SDS011;5542;48.272;10.794;2022-12-07T05:49:34;4.88;;;4.13;;
10977;SDS011;5542;48.272;10.794;2022-12-07T05:52:01;5.50;;;4.40;;
10977;SDS011;5542;48.272;10.794;2022-12-07T05:54:29;4.38;;;3.97;;
10977;SDS011;5542;48.272;10.794;2022-12-07T05:56:55;4.93;;;4.18;;
10977;SDS011;5542;48.272;10.794;2022-12-07T05:59:22;5.03;;;4.53;;
10977;SDS011;5542;48.272;10.794;2022-12-07T06:01:50;4.93;;;4.43;;
10977;SDS011;5542;48.272;10.794;2022-12-07T06:04:17;6.35;;;5.65;;
10977;SDS011;5542;48.272;10.794;2022-12-07T06:06:44;5.72;;;4.80;;
10977;SDS011;5542;48.272;10.794;2022-12-07T06:09:11;5.63;;;5.13;;
10977;SDS011;5542;48.272;10.794;2022-12-07T06:11:38;6.03;;;4.70;;
10977;SDS011;5542;48.272;10.794;2022-12-07T06:14:22;5.32;;;4.70;;
10977;SDS011;5542;48.272;10.794;2022-12-07T06:16:50;7.35;;;5.32;;
10977;SDS011;5542;48.272;10.794;2022-12-07T06:19:17;5.85;;;5.25;;
10977;SDS011;5542;48.272;10.794;2022-12-07T06:21:44;5.03;;;4.43;;
10977;SDS011;5542;48.272;10.794;2022-12-07T06:24:11;5.68;;;4.72;;
10977;SDS011;5542;48.272;10.794;2022-12-07T06:26:38;5.90;;;5.07;;
10977;SDS011;5542;48.272;10.794;2022-12-07T06:29:05;6.27;;;5.27;;
10977;SDS011;5542;48.272;10.794;2022-12-07T06:31:32;6.07;;;5.45;;
10977;SDS011;5542;48.272;10.794;2022-12-07T06:34:00;5.07;;;4.50;;
10977;SDS011;5542;48.272;10.794;2022-12-07T06:36:28;6.30;;;5.57;;
10977;SDS011;5542;48.272;10.794;2022-12-07T06:38:56;5.75;;;5.00;;
10977;SDS011;5542;48.272;10.794;2022-12-07T06:41:23;6.03;;;5.40;;
10977;SDS011;5542;48.272;10.794;2022-12-07T06:43:49;5.32;;;4.68;;
10977;SDS011;5542;48.272;10.794;2022-12-07T06:46:16;5.28;;;4.78;;
10977;SDS011;5542;48.272;10.794;2022-12-07T06:48:43;6.47;;;5.28;;
10977;SDS011;5542;48.272;10.794;2022-12-07T06:51:11;5.70;;;4.72;;
10977;SDS011;5542;48.272;10.794;2022-12-07T06:53:38;6.05;;;4.97;;
10977;SDS011;5542;48.272;10.794;2022-12-07T06:56:05;5.78;;;4.82;;
10977;SDS011;5542;48.272;10.794;2022-12-07T06:58:32;6.13;;;5.15;;
10977;SDS011;5542;48.272;10.794;2022-12-07T07:00:58;6.47;;;5.68;;
10977;SDS011;5542;48.272;10.794;2022-12-07T07:03:25;7.25;;;5.53;;
10977;SDS011;5542;48.272;10.794;2022-12-07T07:05:52;6.90;;;6.13;;
10977;SDS011;5542;48.272;10.794;2022-12-07T07:08:20;6.65;;;5.95;;
10977;SDS011;5542;48.272;10.794;2022-12-07T07:10:46;6.55;;;5.32;;
10977;SDS011;5542;48.272;10.794;2022-12-07T07:13:13;6.43;;;5.20;;
10977;SDS011;5542;48.272;10.794;2022-12-07T07:15:40;7.18;;;5.75;;
10977;SDS011;5542;48.272;10.794;2022-12-07T07:18:07;5.47;;;4.90;;
10977;SDS011;5542;48.272;10.794;2022-12-07T07:20:33;6.72;;;6.03;;
10977;SDS011;5542;48.272;10.794;2022-12-07T07:23:00;6.88;;;5.93;;
10977;SDS011;5542;48.272;10.794;2022-12-07T07:25:28;6.70;;;6.00;;
10977;SDS011;5542;48.272;10.794;2022-12-07T07:27:55;6.22;;;5.60;;
10977;SDS011;5542;48.272;10.794;2022-12-07T07:30:23;7.47;;;6.03;;
10977;SDS011;5542;48.272;10.794;2022-12-07T07:32:50;7.30;;;5.78;;
10977;SDS011;5542;48.272;10.794;2022-12-07T07:35:16;8.00;;;6.80;;
10977;SDS011;5542;48.272;10.794;2022-12-07T07:37:43;7.88;;;6.28;;
10977;SDS011;5542;48.272;10.794;2022-12-07T07:40:10;6.55;;;5.70;;
10977;SDS011;5542;48.272;10.794;2022-12-07T07:42:38;6.97;;;5.93;;
10977;SDS011;5542;48.272;10.794;2022-12-07T07:45:05;7.23;;;6.33;;
10977;SDS011;5542;48.272;10.794;2022-12-07T07:47:32;7.28;;;6.43;;
10977;SDS011;5542;48.272;10.794;2022-12-07T07:49:59;7.40;;;6.57;;
10977;SDS011;5542;48.272;10.794;2022-12-07T07:52:26;7.93;;;6.28;;
10977;SDS011;5542;48.272;10.794;2022-12-07T07:54:52;7.97;;;6.10;;
10977;SDS011;5542;48.272;10.794;2022-12-07T07:57:19;8.98;;;6.70;;
10977;SDS011;5542;48.272;10.794;2022-12-07T07:59:47;7.95;;;6.38;;
10977;SDS011;5542;48.272;10.794;2022-12-07T08:02:14;7.50;;;6.70;;
10977;SDS011;5542;48.272;10.794;2022-12-07T08:04:42;8.18;;;7.00;;
10977;SDS011;5542;48.272;10.794;2022-12-07T08:07:09;8.32;;;7.40;;
10977;SDS011;5542;48.272;10.794;2022-12-07T08:09:36;7.95;;;6.50;;
10977;SDS011;5542;48.272;10.794;2022-12-07T08:12:03;8.55;;;7.20;;
10977;SDS011;5542;48.272;10.794;2022-12-07T08:14:31;6.67;;;6.00;;
10977;SDS011;5542;48.272;10.794;2022-12-07T08:16:59;7.25;;;6.45;;
10977;SDS011;5542;48.272;10.794;2022-12-07T08:19:26;7.10;;;6.32;;
10977;SDS011;5542;48.272;10.794;2022-12-07T08:21:53;6.90;;;6.13;;
10977;SDS011;5542;48.272;10.794;2022-12-07T08:24:20;9.23;;;6.47;;
10977;SDS011;5542;48.272;10.794;2022-12-07T08:26:48;7.97;;;5.97;;
10977;SDS011;5542;48.272;10.794;2022-12-07T08:29:15;6.82;;;6.05;;
10977;SDS011;5542;48.272;10.794;2022-12-07T08:31:42;7.20;;;6.13;;
10977;SDS011;5542;48.272;10.794;2022-12-07T08:34:11;7.07;;;5.85;;
10977;SDS011;5542;48.272;10.794;2022-12-07T08:36:38;6.35;;;5.07;;
10977;SDS011;5542;48.272;10.794;2022-12-07T08:39:05;6.40;;;5.70;;
10977;SDS011;5542;48.272;10.794;2022-12-07T08:41:32;6.13;;;5.47;;
10977;SDS011;5542;48.272;10.794;2022-12-07T08:43:59;8.70;;;6.60;;
10977;SDS011;5542;48.272;10.794;2022-12-07T08:46:26;6.30;;;5.70;;
10977;SDS011;5542;48.272;10.794;2022-12-07T08:49:02;6.25;;;5.63;;
10977;SDS011;5542;48.272;10.794;2022-12-07T08:51:32;7.32;;;6.40;;
10977;SDS011;5542;48.272;10.794;2022-12-07T08:53:59;8.05;;;6.40;;
10977;SDS011;5542;48.272;10.794;2022-12-07T08:56:29;7.05;;;6.00;;
10977;SDS011;5542;48.272;10.794;2022-12-07T08:58:56;8.40;;;6.55;;
10977;SDS011;5542;48.272;10.794;2022-12-07T09:01:24;14.55;;;9.38;;
10977;SDS011;5542;48.272;10.794;2022-12-07T09:03:50;11.05;;;7.53;;
10977;SDS011;5542;48.272;10.794;2022-12-07T09:06:17;7.30;;;6.15;;
10977;SDS011;5542;48.272;10.794;2022-12-07T09:08:46;7.40;;;6.60;;
10977;SDS011;5542;48.272;10.794;2022-12-07T09:11:16;7.38;;;5.85;;
10977;SDS011;5542;48.272;10.794;2022-12-07T09:13:42;6.40;;;5.40;;
10977;SDS011;5542;48.272;10.794;2022-12-07T09:16:09;7.27;;;6.00;;
10977;SDS011;5542;48.272;10.794;2022-12-07T09:18:36;6.70;;;5.68;;
10977;SDS011;5542;48.272;10.794;2022-12-07T09:21:03;6.68;;;5.63;;
10977;SDS011;5542;48.272;10.794;2022-12-07T09:23:30;7.17;;;5.73;;
10977;SDS011;5542;48.272;10.794;2022-12-07T09:26:00;7.00;;;5.15;;
10977;SDS011;5542;48.272;10.794;2022-12-07T09:28:26;6.97;;;5.57;;
10977;SDS011;5542;48.272;10.794;2022-12-07T09:30:53;6.93;;;6.00;;
10977;SDS011;5542;48.272;10.794;2022-12-07T09:33:20;6.50;;;5.50;;
10977;SDS011;5542;48.272;10.794;2022-12-07T09:35:47;6.07;;;5.03;;
10977;SDS011;5542;48.272;10.794;2022-12-07T09:38:15;5.82;;;5.22;;
10977;SDS011;5542;48.272;10.794;2022-12-07T09:40:42;5.70;;;4.95;;
10977;SDS011;5542;48.272;10.794;2022-12-07T09:43:13;7.28;;;5.78;;
10977;SDS011;5542;48.272;10.794;2022-12-07T09:45:41;5.90;;;5.15;;
10977;SDS011;5542;48.272;10.794;2022-12-07T09:48:11;6.18;;;4.97;;
10977;SDS011;5542;48.272;10.794;2022-12-07T09:50:42;5.70;;;4.97;;
10977;SDS011;5542;48.272;10.794;2022-12-07T09:53:10;7.78;;;5.80;;
10977;SDS011;5542;48.272;10.794;2022-12-07T09:55:40;6.82;;;5.38;;
10977;SDS011;5542;48.272;10.794;2022-12-07T09:58:09;6.07;;;5.07;;
10977;SDS011;5542;48.272;10.794;2022-12-07T10:00:47;5.85;;;5.25;;
10977;SDS011;5542;48.272;10.794;2022-12-07T10:03:14;5.53;;;5.00;;
10977;SDS011;5542;48.272;10.794;2022-12-07T10:05:42;6.10;;;5.25;;
10977;SDS011;5542;48.272;10.794;2022-12-07T10:08:11;6.47;;;5.25;;
10977;SDS011;5542;48.272;10.794;2022-12-07T10:10:40;6.25;;;5.30;;
10977;SDS011;5542;48.272;10.794;2022-12-07T10:13:08;5.43;;;4.78;;
10977;SDS011;5542;48.272;10.794;2022-12-07T10:15:42;7.38;;;5.68;;
10977;SDS011;5542;48.272;10.794;2022-12-07T10:18:17;6.22;;;5.20;;
10977;SDS011;5542;48.272;10.794;2022-12-07T10:20:46;6.07;;;5.45;;
10977;SDS011;5542;48.272;10.794;2022-12-07T10:23:14;6.57;;;4.63;;
10977;SDS011;5542;48.272;10.794;2022-12-07T10:25:42;5.85;;;5.10;;
10977;SDS011;5542;48.272;10.794;2022-12-07T10:28:12;4.60;;;4.20;;
10977;SDS011;5542;48.272;10.794;2022-12-07T10:30:49;4.88;;;4.25;;
10977;SDS011;5542;48.272;10.794;2022-12-07T10:33:27;6.28;;;4.88;;
10977;SDS011;5542;48.272;10.794;2022-12-07T10:35:55;4.88;;;4.38;;
10977;SDS011;5542;48.272;10.794;2022-12-07T10:38:22;4.70;;;4.22;;
10977;SDS011;5542;48.272;10.794;2022-12-07T10:40:52;6.05;;;4.70;;
10977;SDS011;5542;48.272;10.794;2022-12-07T10:43:30;5.05;;;4.55;;
10977;SDS011;5542;48.272;10.794;2022-12-07T10:46:09;5.25;;;4.70;;
10977;SDS011;5542;48.272;10.794;2022-12-07T10:48:51;4.40;;;4.00;;
10977;SDS011;5542;48.272;10.794;2022-12-07T10:51:27;4.78;;;4.25;;
10977;SDS011;5542;48.272;10.794;2022-12-07T10:54:03;5.38;;;4.68;;
10977;SDS011;5542;48.272;10.794;2022-12-07T10:56:53;4.53;;;4.13;;
10977;SDS011;5542;48.272;10.794;2022-12-07T10:59:42;5.25;;;4.38;;
10977;SDS011;5542;48.272;10.794;2022-12-07T11:02:23;5.40;;;4.38;;
10977;SDS011;5542;48.272;10.794;2022-12-07T11:04:59;4.97;;;4.45;;
10977;SDS011;5542;48.272;10.794;2022-12-07T11:07:38;5.00;;;4.50;;
10977;SDS011;5542;48.272;10.794;2022-12-07T11:10:13;4.63;;;4.20;;
10977;SDS011;5542;48.272;10.794;2022-12-07T11:12:52;4.90;;;4.40;;
10977;SDS011;5542;48.272;10.794;2022-12-07T11:15:42;5.32;;;4.22;;
10977;SDS011;5542;48.272;10.794;2022-12-07T11:18:21;6.00;;;4.50;;
10977;SDS011;5542;48.272;10.794;2022-12-07T11:20:53;4.97;;;4.10;;
10977;SDS011;5542;48.272;10.794;2022-12-07T11:23:27;5.20;;;4.22;;
10977;SDS011;5542;48.272;10.794;2022-12-07T11:26:07;4.88;;;4.10;;
10977;SDS011;5542;48.272;10.794;2022-12-07T11:28:53;6.03;;;4.90;;
10977;SDS011;5542;48.272;10.794;2022-12-07T11:31:33;4.97;;;4.30;;
10977;SDS011;5542;48.272;10.794;2022-12-07T11:34:06;5.00;;;4.43;;
10977;SDS011;5542;48.272;10.794;2022-12-07T11:36:41;4.65;;;3.92;;
10977;SDS011;5542;48.272;10.794;2022-12-07T11:39:15;5.30;;;4.50;;
10977;SDS011;5542;48.272;10.794;2022-12-07T11:41:47;4.65;;;4.00;;
10977;SDS011;5542;48.272;10.794;2022-12-07T11:44:19;5.13;;;4.30;;
10977;SDS011;5542;48.272;10.794;2022-12-07T11:46:55;4.30;;;3.90;;
10977;SDS011;5542;48.272;10.794;2022-12-07T11:49:31;6.03;;;4.38;;
10977;SDS011;5542;48.272;10.794;2022-12-07T11:52:09;4.68;;;3.88;;
10977;SDS011;5542;48.272;10.794;2022-12-07T11:54:44;4.93;;;4.00;;
10977;SDS011;5542;48.272;10.794;2022-12-07T11:57:15;4.95;;;4.20;;
10977;SDS011;5542;48.272;10.794;2022-12-07T11:59:47;4.45;;;3.70;;
10977;SDS011;5542;48.272;10.794;2022-12-07T12:02:19;4.57;;;3.70;;
10977;SDS011;5542;48.272;10.794;2022-12-07T12:04:52;5.15;;;4.40;;
10977;SDS011;5542;48.272;10.794;2022-12-07T12:07:25;5.38;;;3.97;;
10977;SDS011;5542;48.272;10.794;2022-12-07T12:10:01;4.47;;;3.92;;
10977;SDS011;5542;48.272;10.794;2022-12-07T12:12:37;4.50;;;3.85;;
10977;SDS011;5542;48.272;10.794;2022-12-07T12:15:26;4.70;;;3.60;;
10977;SDS011;5542;48.272;10.794;2022-12-07T12:18:07;5.15;;;4.30;;
10977;SDS011;5542;48.272;10.794;2022-12-07T12:20:47;4.57;;;3.58;;
10977;SDS011;5542;48.272;10.794;2022-12-07T12:23:19;4.97;;;3.75;;
10977;SDS011;5542;48.272;10.794;2022-12-07T12:25:48;5.35;;;4.15;;
10977;SDS011;5542;48.272;10.794;2022-12-07T12:28:20;6.78;;;4.20;;
10977;SDS011;5542;48.272;10.794;2022-12-07T12:31:10;6.68;;;4.18;;
10977;SDS011;5542;48.272;10.794;2022-12-07T12:33:42;6.07;;;4.28;;
10977;SDS011;5542;48.272;10.794;2022-12-07T12:36:23;5.65;;;4.30;;
10977;SDS011;5542;48.272;10.794;2022-12-07T12:38:51;4.20;;;3.80;;
10977;SDS011;5542;48.272;10.794;2022-12-07T12:41:52;4.18;;;3.72;;
10977;SDS011;5542;48.272;10.794;2022-12-07T12:47:51;5.45;;;4.53;;
10977;SDS011;5542;48.272;10.794;2022-12-07T12:50:23;4.97;;;3.92;;
10977;SDS011;5542;48.272;10.794;2022-12-07T12:53:03;4.30;;;3.75;;
10977;SDS011;5542;48.272;10.794;2022-12-07T12:55:54;4.30;;;3.90;;
10977;SDS011;5542;48.272;10.794;2022-12-07T12:58:38;5.00;;;4.38;;
10977;SDS011;5542;48.272;10.794;2022-12-07T13:07:03;6.43;;;4.75;;
10977;SDS011;5542;48.272;10.794;2022-12-07T13:09:32;5.30;;;4.22;;
10977;SDS011;5542;48.272;10.794;2022-12-07T13:12:02;4.95;;;3.90;;
10977;SDS011;5542;48.272;10.794;2022-12-07T13:14:37;4.18;;;3.70;;
10977;SDS011;5542;48.272;10.794;2022-12-07T13:17:08;5.60;;;4.63;;
10977;SDS011;5542;48.272;10.794;2022-12-07T13:22:34;4.95;;;4.45;;
10977;SDS011;5542;48.272;10.794;2022-12-07T13:25:31;4.63;;;4.15;;
10977;SDS011;5542;48.272;10.794;2022-12-07T13:28:04;5.45;;;4.50;;
10977;SDS011;5542;48.272;10.794;2022-12-07T13:30:42;4.90;;;4.20;;
10977;SDS011;5542;48.272;10.794;2022-12-07T13:33:13;4.45;;;4.05;;
10977;SDS011;5542;48.272;10.794;2022-12-07T13:35:43;4.68;;;4.10;;
10977;SDS011;5542;48.272;10.794;2022-12-07T13:38:16;5.27;;;4.47;;
10977;SDS011;5542;48.272;10.794;2022-12-07T13:41:12;5.22;;;4.72;;
10977;SDS011;5542;48.272;10.794;2022-12-07T13:43:44;4.60;;;4.03;;
10977;SDS011;5542;48.272;10.794;2022-12-07T13:46:14;5.28;;;4.35;;
10977;SDS011;5542;48.272;10.794;2022-12-07T13:48:44;5.32;;;4.15;;
10977;SDS011;5542;48.272;10.794;2022-12-07T13:51:16;4.53;;;4.13;;
10977;SDS011;5542;48.272;10.794;2022-12-07T13:53:46;4.97;;;4.20;;
10977;SDS011;5542;48.272;10.794;2022-12-07T13:56:15;7.38;;;5.25;;
10977;SDS011;5542;48.272;10.794;2022-12-07T13:58:41;5.10;;;4.57;;
10977;SDS011;5542;48.272;10.794;2022-12-07T14:01:08;4.97;;;3.78;;
10977;SDS011;5542;48.272;10.794;2022-12-07T14:03:35;4.55;;;3.70;;
10977;SDS011;5542;48.272;10.794;2022-12-07T14:06:04;3.47;;;3.17;;
10977;SDS011;5542;48.272;10.794;2022-12-07T14:08:43;4.82;;;3.80;;
10977;SDS011;5542;48.272;10.794;2022-12-07T14:11:10;3.90;;;3.50;;
10977;SDS011;5542;48.272;10.794;2022-12-07T14:13:44;4.13;;;3.72;;
10977;SDS011;5542;48.272;10.794;2022-12-07T14:16:21;3.85;;;3.30;;
10977;SDS011;5542;48.272;10.794;2022-12-07T14:18:51;4.35;;;3.60;;
10977;SDS011;5542;48.272;10.794;2022-12-07T14:21:18;5.00;;;3.72;;
10977;SDS011;5542;48.272;10.794;2022-12-07T14:24:02;3.37;;;3.07;;
10977;SDS011;5542;48.272;10.794;2022-12-07T14:26:36;3.13;;;2.83;;
10977;SDS011;5542;48.272;10.794;2022-12-07T14:29:20;3.53;;;3.22;;
10977;SDS011;5542;48.272;10.794;2022-12-07T14:31:55;4.65;;;3.97;;
10977;SDS011;5542;48.272;10.794;2022-12-07T14:34:23;3.50;;;3.20;;
10977;SDS011;5542;48.272;10.794;2022-12-07T14:36:50;3.08;;;2.58;;
10977;SDS011;5542;48.272;10.794;2022-12-07T14:39:17;3.80;;;3.38;;
10977;SDS011;5542;48.272;10.794;2022-12-07T14:41:45;6.13;;;4.30;;
10977;SDS011;5542;48.272;10.794;2022-12-07T14:44:17;5.20;;;3.83;;
10977;SDS011;5542;48.272;10.794;2022-12-07T14:46:46;9.88;;;5.25;;
10977;SDS011;5542;48.272;10.794;2022-12-07T14:49:12;6.53;;;4.60;;
10977;SDS011;5542;48.272;10.794;2022-12-07T14:51:39;5.07;;;4.07;;
10977;SDS011;5542;48.272;10.794;2022-12-07T14:54:09;3.97;;;3.55;;
10977;SDS011;5542;48.272;10.794;2022-12-07T14:56:40;3.95;;;3.20;;
10977;SDS011;5542;48.272;10.794;2022-12-07T14:59:08;5.10;;;3.97;;
10977;SDS011;5542;48.272;10.794;2022-12-07T15:01:34;4.55;;;3.67;;
10977;SDS011;5542;48.272;10.794;2022-12-07T15:04:01;5.10;;;4.20;;
10977;SDS011;5542;48.272;10.794;2022-12-07T15:06:28;4.75;;;3.38;;
10977;SDS011;5542;48.272;10.794;2022-12-07T15:08:54;4.80;;;2.95;;
10977;SDS011;5542;48.272;10.794;2022-12-07T15:11:21;3.20;;;2.90;;
10977;SDS011;5542;48.272;10.794;2022-12-07T15:13:47;3.57;;;3.00;;
10977;SDS011;5542;48.272;10.794;2022-12-07T15:16:33;3.33;;;3.03;;
10977;SDS011;5542;48.272;10.794;2022-12-07T15:19:00;2.75;;;2.55;;
10977;SDS011;5542;48.272;10.794;2022-12-07T15:21:27;2.42;;;2.22;;